createdAt,value
2023-05-06T00:01:13.953Z,99419.56
2023-05-06T00:03:41.368Z,99409.41
2023-05-06T00:06:08.615Z,99418.03
2023-05-06T00:08:35.930Z,99424.84
2023-05-06T00:11:02.944Z,99420.34
2023-05-06T00:13:29.829Z,99422.91
2023-05-06T00:15:56.882Z,99441.63
2023-05-06T00:18:23.807Z,99422.50
2023-05-06T00:20:50.788Z,99433.41
2023-05-06T00:23:17.629Z,99424.44
2023-05-06T00:25:44.514Z,99420.31
2023-05-06T00:28:11.422Z,99436.81
2023-05-06T00:30:38.983Z,99427.78
2023-05-06T00:33:05.892Z,99424.06
2023-05-06T00:35:33.517Z,99436.09
2023-05-06T00:38:14.527Z,99405.69
2023-05-06T00:40:42.828Z,99409.03
2023-05-06T00:43:10.115Z,99417.34
2023-05-06T00:45:37.686Z,99417.34
2023-05-06T00:48:06.721Z,99418.41
2023-05-06T00:50:35.065Z,99438.38
2023-05-06T00:53:04.200Z,99432.78
2023-05-06T00:55:31.553Z,99419.63
2023-05-06T00:57:59.101Z,99409.13
2023-05-06T01:00:26.122Z,99431.25
2023-05-06T01:02:53.218Z,99426.00
2023-05-06T01:05:22.656Z,99384.28
2023-05-06T01:08:10.665Z,99415.88
2023-05-06T01:10:52.519Z,99396.34
2023-05-06T01:13:40.576Z,99407.63
2023-05-06T01:16:10.487Z,99406.13
2023-05-06T01:18:38.761Z,99411.38
2023-05-06T01:21:07.015Z,99430.88
2023-05-06T01:23:53.815Z,99413.63
2023-05-06T01:26:20.872Z,99430.91
2023-05-06T01:28:48.042Z,99427.94
2023-05-06T01:31:27.190Z,99423.03
2023-05-06T01:34:07.105Z,99425.56
2023-05-06T01:36:56.392Z,99429.66
2023-05-06T01:39:30.081Z,99425.09
2023-05-06T01:42:00.382Z,99418.69
2023-05-06T01:44:29.045Z,99426.28
2023-05-06T01:46:57.047Z,99415.72
2023-05-06T01:49:26.415Z,99435.25
2023-05-06T01:51:55.226Z,99417.22
2023-05-06T01:54:23.360Z,99425.50
2023-05-06T01:56:50.238Z,99464.78
2023-05-06T01:59:17.126Z,99420.84
2023-05-06T02:01:43.952Z,99439.63
2023-05-06T02:04:10.947Z,99437.16
2023-05-06T02:06:38.313Z,99428.53
2023-05-06T02:09:05.998Z,99449.88
2023-05-06T02:11:37.497Z,99448.44
2023-05-06T02:14:06.974Z,99448.31
2023-05-06T02:16:35.164Z,99446.81
2023-05-06T02:19:02.193Z,99449.00
2023-05-06T02:21:29.085Z,99435.16
2023-05-06T02:23:55.915Z,99455.59
2023-05-06T02:26:22.763Z,99472.19
2023-05-06T02:28:49.683Z,99471.47
2023-05-06T02:31:16.863Z,99461.16
2023-05-06T02:33:45.407Z,99475.56
2023-05-06T02:36:12.273Z,99472.00
2023-05-06T02:38:39.133Z,99480.22
2023-05-06T02:41:05.987Z,99464.34
2023-05-06T02:43:32.810Z,99496.41
2023-05-06T02:45:59.918Z,99510.97
2023-05-06T02:48:26.842Z,99502.91
2023-05-06T02:50:53.667Z,99474.69
2023-05-06T02:53:20.616Z,99505.06
2023-05-06T02:55:47.555Z,99507.25
2023-05-06T02:58:14.562Z,99539.34
2023-05-06T03:00:41.452Z,99533.72
2023-05-06T03:03:09.181Z,99517.69
2023-05-06T03:05:36.108Z,99513.78
2023-05-06T03:08:02.972Z,99528.16
2023-05-06T03:10:30.850Z,99520.16
2023-05-06T03:12:59.090Z,99492.63
2023-05-06T03:15:26.728Z,99500.88
2023-05-06T03:17:54.301Z,99498.31
2023-05-06T03:20:21.846Z,99507.22
2023-05-06T03:22:52.654Z,99501.25
2023-05-06T03:25:21.333Z,99497.44
2023-05-06T03:27:48.651Z,99507.78
2023-05-06T03:30:19.815Z,99476.69
2023-05-06T03:32:48.673Z,99496.72
2023-05-06T03:35:21.355Z,99503.47
2023-05-06T03:37:52.906Z,99508.97
2023-05-06T03:40:22.017Z,99508.38
2023-05-06T03:42:49.280Z,99551.81
2023-05-06T03:45:16.846Z,99550.28
2023-05-06T03:47:45.121Z,99533.38
2023-05-06T03:50:13.368Z,99528.88
2023-05-06T03:52:41.011Z,99540.75
2023-05-06T03:55:08.584Z,99522.06
2023-05-06T03:57:36.418Z,99511.78
2023-05-06T04:00:05.613Z,99514.34
2023-05-06T04:02:43.033Z,99512.34
2023-05-06T04:05:15.064Z,99520.63
2023-05-06T04:07:42.315Z,99541.78
2023-05-06T04:10:09.532Z,99529.28
2023-05-06T04:12:37.918Z,99524.13
2023-05-06T04:15:07.086Z,99525.22
2023-05-06T04:17:34.651Z,99522.88
2023-05-06T04:20:02.102Z,99525.66
2023-05-06T04:22:29.208Z,99538.53
2023-05-06T04:24:56.547Z,99545.16
2023-05-06T04:27:23.887Z,99564.81
2023-05-06T04:29:51.133Z,99565.59
2023-05-06T04:32:18.242Z,99562.91
2023-05-06T04:34:47.474Z,99566.13
2023-05-06T04:37:16.049Z,99578.06
2023-05-06T04:39:49.096Z,99546.81
2023-05-06T04:42:16.782Z,99547.56
2023-05-06T04:44:51.595Z,99597.09
2023-05-06T04:47:22.919Z,99566.81
2023-05-06T04:49:51.881Z,99571.22
2023-05-06T04:52:19.257Z,99583.59
2023-05-06T04:54:46.359Z,99566.13
2023-05-06T04:57:13.379Z,99546.34
2023-05-06T04:59:44.594Z,99554.59
2023-05-06T05:02:12.161Z,99586.31
2023-05-06T05:04:41.595Z,99586.28
2023-05-06T05:07:08.974Z,99608.69
2023-05-06T05:09:36.378Z,99599.66
2023-05-06T05:12:22.067Z,99619.75
2023-05-06T05:14:51.256Z,99603.63
2023-05-06T05:17:20.968Z,99621.19
2023-05-06T05:19:49.732Z,99615.06
2023-05-06T05:22:17.589Z,99600.44
2023-05-06T05:25:03.908Z,99606.53
2023-05-06T05:27:32.105Z,99567.19
2023-05-06T05:29:58.955Z,99600.97
2023-05-06T05:32:26.369Z,99604.47
2023-05-06T05:34:53.301Z,99591.00
2023-05-06T05:37:20.287Z,99598.13
2023-05-06T05:39:47.630Z,99602.56
2023-05-06T05:42:16.528Z,99623.25
2023-05-06T05:44:45.160Z,99632.47
2023-05-06T05:47:12.508Z,99614.47
2023-05-06T05:49:58.468Z,99620.50
2023-05-06T05:52:25.660Z,99611.44
2023-05-06T05:54:52.820Z,99611.75
2023-05-06T05:57:19.888Z,99616.28
2023-05-06T05:59:47.132Z,99607.56
2023-05-06T06:02:14.165Z,99595.91
2023-05-06T06:04:41.552Z,99609.56
2023-05-06T06:07:27.041Z,99634.44
2023-05-06T06:10:12.549Z,99643.91
2023-05-06T06:12:39.857Z,99599.31
2023-05-06T06:15:08.093Z,99628.31
2023-05-06T06:17:38.267Z,99649.53
2023-05-06T06:20:07.444Z,99639.44
2023-05-06T06:22:34.399Z,99641.88
2023-05-06T06:25:01.406Z,99627.59
2023-05-06T06:27:28.410Z,99633.78
2023-05-06T06:29:55.676Z,99627.94
2023-05-06T06:32:30.957Z,99640.69
2023-05-06T06:35:08.449Z,99621.00
2023-05-06T06:37:42.984Z,99640.13
2023-05-06T06:40:37.898Z,99645.56
2023-05-06T06:43:11.252Z,99642.69
2023-05-06T06:46:03.699Z,99650.03
2023-05-06T06:48:33.096Z,99653.53
2023-05-06T06:51:00.038Z,99646.56
2023-05-06T06:53:29.313Z,99657.72
2023-05-06T06:56:00.725Z,99665.72
2023-05-06T06:58:28.112Z,99642.25
2023-05-06T07:00:55.212Z,99635.03
2023-05-06T07:03:27.547Z,99655.38
2023-05-06T07:05:54.491Z,99651.00
2023-05-06T07:08:21.331Z,99666.34
2023-05-06T07:10:51.050Z,99673.63
2023-05-06T07:13:20.537Z,99667.25
2023-05-06T07:15:49.234Z,99665.63
2023-05-06T07:18:16.379Z,99661.16
2023-05-06T07:20:43.329Z,99671.63
2023-05-06T07:23:10.184Z,99660.19
2023-05-06T07:25:39.507Z,99638.97
2023-05-06T07:28:08.670Z,99669.34
2023-05-06T07:30:38.291Z,99652.72
2023-05-06T07:33:05.312Z,99669.28
2023-05-06T07:35:32.291Z,99651.72
2023-05-06T07:37:59.168Z,99683.84
2023-05-06T07:40:26.253Z,99668.81
2023-05-06T07:42:53.168Z,99666.34
2023-05-06T07:45:20.014Z,99676.53
2023-05-06T07:47:46.948Z,99713.03
2023-05-06T07:50:14.152Z,99667.50
2023-05-06T07:52:41.181Z,99658.34
2023-05-06T07:55:12.131Z,99662.06
2023-05-06T07:57:39.264Z,99663.25
2023-05-06T08:00:07.351Z,99687.88
2023-05-06T08:02:39.667Z,99670.00
2023-05-06T08:05:07.172Z,99698.00
2023-05-06T08:07:34.164Z,99669.06
2023-05-06T08:10:01.429Z,99679.16
2023-05-06T08:12:28.413Z,99654.13
2023-05-06T08:14:56.465Z,99653.84
2023-05-06T08:17:28.144Z,99666.78
2023-05-06T08:19:55.303Z,99661.44
2023-05-06T08:22:22.348Z,99649.75
2023-05-06T08:24:50.490Z,99636.44
2023-05-06T08:27:17.361Z,99658.09
2023-05-06T08:29:45.410Z,99662.09
2023-05-06T08:32:12.385Z,99664.56
2023-05-06T08:34:41.758Z,99653.72
2023-05-06T08:37:17.025Z,99665.06
2023-05-06T08:39:46.589Z,99637.84
2023-05-06T08:42:13.565Z,99673.81
2023-05-06T08:44:40.567Z,99647.78
2023-05-06T08:47:08.698Z,99668.84
2023-05-06T08:49:36.214Z,99679.69
2023-05-06T08:52:10.105Z,99662.97
2023-05-06T08:54:38.449Z,99664.59
2023-05-06T08:57:06.147Z,99691.69
2023-05-06T08:59:35.955Z,99673.78
2023-05-06T09:02:04.710Z,99678.25
2023-05-06T09:04:32.047Z,99690.84
2023-05-06T09:06:59.336Z,99669.09
2023-05-06T09:09:26.462Z,99676.75
2023-05-06T09:11:53.311Z,99718.38
2023-05-06T09:14:21.438Z,99689.91
2023-05-06T09:16:50.231Z,99700.22
2023-05-06T09:19:19.441Z,99686.13
2023-05-06T09:21:48.742Z,99695.53
2023-05-06T09:24:17.065Z,99709.59
2023-05-06T09:26:45.603Z,99683.88
2023-05-06T09:29:13.009Z,99715.38
2023-05-06T09:31:44.907Z,99700.06
2023-05-06T09:34:12.813Z,99699.47
2023-05-06T09:36:39.841Z,99738.06
2023-05-06T09:39:07.301Z,99699.63
2023-05-06T09:41:34.175Z,99733.50
2023-05-06T09:44:01.548Z,99744.16
2023-05-06T09:46:29.172Z,99720.59
2023-05-06T09:48:57.193Z,99727.81
2023-05-06T09:51:24.140Z,99761.06
2023-05-06T09:53:52.585Z,99741.88
2023-05-06T09:56:21.126Z,99752.06
2023-05-06T09:58:52.475Z,99754.72
2023-05-06T10:01:32.841Z,99744.63
2023-05-06T10:04:09.366Z,99765.28
2023-05-06T10:06:39.825Z,99734.41
2023-05-06T10:09:08.764Z,99735.72
2023-05-06T10:11:36.241Z,99755.44
2023-05-06T10:14:04.214Z,99764.53
2023-05-06T10:16:33.807Z,99759.88
2023-05-06T10:19:02.920Z,99750.31
2023-05-06T10:21:33.305Z,99731.34
2023-05-06T10:24:10.985Z,99751.63
2023-05-06T10:26:41.470Z,99751.81
2023-05-06T10:29:11.433Z,99767.31
2023-05-06T10:31:49.154Z,99766.66
2023-05-06T10:34:19.528Z,99752.66
2023-05-06T10:36:47.959Z,99787.81
2023-05-06T10:39:15.419Z,99761.47
2023-05-06T10:41:42.398Z,99791.59
2023-05-06T10:44:09.500Z,99782.59
2023-05-06T10:46:57.402Z,99780.44
2023-05-06T10:49:24.405Z,99763.00
2023-05-06T10:52:14.779Z,99784.22
2023-05-06T10:54:49.455Z,99780.59
2023-05-06T10:57:16.874Z,99794.47
2023-05-06T10:59:46.548Z,99767.03
2023-05-06T11:02:14.502Z,99794.03
2023-05-06T11:04:41.840Z,99785.41
2023-05-06T11:07:12.156Z,99774.19
2023-05-06T11:10:04.854Z,99797.53
2023-05-06T11:12:48.394Z,99788.75
2023-05-06T11:15:25.726Z,99789.50
2023-05-06T11:17:56.744Z,99774.03
2023-05-06T11:20:25.575Z,99801.91
2023-05-06T11:22:53.161Z,99747.09
2023-05-06T11:25:39.725Z,99786.91
2023-05-06T11:28:14.912Z,99790.22
2023-05-06T11:30:44.499Z,99786.13
2023-05-06T11:33:18.707Z,99767.47
2023-05-06T11:35:45.826Z,99784.34
2023-05-06T11:38:12.829Z,99798.84
2023-05-06T11:40:41.995Z,99782.94
2023-05-06T11:43:16.324Z,99787.63
2023-05-06T11:45:48.756Z,99788.25
2023-05-06T11:48:16.649Z,99778.59
2023-05-06T11:50:48.511Z,99778.59
2023-05-06T11:53:25.046Z,99768.81
2023-05-06T11:55:53.768Z,99787.78
2023-05-06T11:58:25.510Z,99795.00
2023-05-06T12:00:58.471Z,99791.28
2023-05-06T12:03:26.902Z,99773.94
2023-05-06T12:05:54.195Z,99785.72
2023-05-06T12:08:32.034Z,99777.78
2023-05-06T12:11:07.240Z,99790.75
2023-05-06T12:13:36.331Z,99774.63
2023-05-06T12:16:05.768Z,99763.66
2023-05-06T12:18:33.330Z,99771.59
2023-05-06T12:21:02.540Z,99757.47
2023-05-06T12:23:56.354Z,99784.19
2023-05-06T12:26:23.677Z,99769.66
2023-05-06T12:29:07.805Z,99783.44
2023-05-06T12:31:35.200Z,99766.38
2023-05-06T12:34:05.775Z,99764.91
2023-05-06T12:36:32.741Z,99782.50
2023-05-06T12:39:20.384Z,99770.63
2023-05-06T12:41:47.868Z,99752.06
2023-05-06T12:44:38.997Z,99753.97
2023-05-06T12:47:08.564Z,99759.94
2023-05-06T12:49:46.746Z,99749.59
2023-05-06T12:52:14.390Z,99747.09
2023-05-06T12:54:41.211Z,99771.09
2023-05-06T12:57:08.279Z,99752.75
2023-05-06T12:59:36.512Z,99747.25
2023-05-06T13:02:04.822Z,99757.91
2023-05-06T13:04:32.042Z,99747.84
2023-05-06T13:07:00.396Z,99769.13
2023-05-06T13:09:45.831Z,99762.06
2023-05-06T13:12:13.018Z,99771.19
2023-05-06T13:14:58.803Z,99771.91
2023-05-06T13:17:44.518Z,99760.44
2023-05-06T13:20:12.418Z,99764.94
2023-05-06T13:22:53.283Z,99758.81
2023-05-06T13:25:21.088Z,99777.19
2023-05-06T13:27:48.084Z,99773.69
2023-05-06T13:30:33.504Z,99744.56
2023-05-06T13:33:00.500Z,99758.94
2023-05-06T13:35:46.187Z,99762.47
2023-05-06T13:38:13.212Z,99762.47
2023-05-06T13:40:40.078Z,99756.22
2023-05-06T13:43:08.198Z,99750.16
2023-05-06T13:45:35.051Z,99770.78
2023-05-06T13:48:20.373Z,99784.59
2023-05-06T13:50:47.546Z,99772.66
2023-05-06T13:53:14.794Z,99758.59
2023-05-06T13:55:42.364Z,99787.81
2023-05-06T13:58:09.316Z,99756.78
2023-05-06T14:00:36.360Z,99780.47
2023-05-06T14:03:21.913Z,99775.13
2023-05-06T14:05:48.861Z,99772.69
2023-05-06T14:08:15.718Z,99780.31
2023-05-06T14:10:44.894Z,99772.13
2023-05-06T14:13:30.726Z,99762.53
2023-05-06T14:15:58.228Z,99763.19
2023-05-06T14:18:26.795Z,99767.09
2023-05-06T14:21:12.319Z,99778.75
2023-05-06T14:23:39.243Z,99765.84
2023-05-06T14:26:08.345Z,99776.50
2023-05-06T14:28:35.523Z,99787.66
2023-05-06T14:31:02.367Z,99765.75
2023-05-06T14:33:29.268Z,99767.84
2023-05-06T14:35:56.158Z,99776.31
2023-05-06T14:38:23.084Z,99769.00
2023-05-06T14:40:52.992Z,99790.97
2023-05-06T14:43:20.137Z,99778.25
2023-05-06T14:45:47.193Z,99775.97
2023-05-06T14:48:14.181Z,99777.59
2023-05-06T14:50:41.141Z,99759.34
2023-05-06T14:53:08.112Z,99778.44
2023-05-06T14:55:35.723Z,99765.59
2023-05-06T14:58:02.701Z,99791.38
2023-05-06T15:00:29.757Z,99767.69
2023-05-06T15:02:56.778Z,99782.00
2023-05-06T15:05:23.745Z,99779.47
2023-05-06T15:07:50.678Z,99768.63
2023-05-06T15:10:17.638Z,99762.59
2023-05-06T15:12:44.707Z,99791.25
2023-05-06T15:15:11.888Z,99755.75
2023-05-06T15:17:40.317Z,99782.25
2023-05-06T15:20:07.900Z,99777.03
2023-05-06T15:22:36.263Z,99782.25
2023-05-06T15:25:05.139Z,99773.16
2023-05-06T15:27:32.002Z,99775.06
2023-05-06T15:29:58.881Z,99776.91
2023-05-06T15:32:25.986Z,99792.09
2023-05-06T15:34:53.023Z,99782.25
2023-05-06T15:37:19.828Z,99785.00
2023-05-06T15:39:46.633Z,99787.66
2023-05-06T15:42:13.842Z,99806.09
2023-05-06T15:44:40.793Z,99797.44
2023-05-06T15:47:07.816Z,99813.66
2023-05-06T15:49:51.406Z,99807.28
2023-05-06T15:52:21.373Z,99828.38
2023-05-06T15:54:49.904Z,99837.78
2023-05-06T15:57:17.752Z,99823.09
2023-05-06T15:59:44.808Z,99827.97
2023-05-06T16:04:41.790Z,99809.16
2023-05-06T16:07:08.937Z,99801.22
2023-05-06T16:09:36.230Z,99811.72
2023-05-06T16:12:03.201Z,99806.44
2023-05-06T16:14:30.036Z,99850.16
2023-05-06T16:16:58.610Z,99823.34
2023-05-06T16:19:25.587Z,99823.31
2023-05-06T16:21:52.481Z,99838.81
2023-05-06T16:24:19.423Z,99825.94
2023-05-06T16:26:46.255Z,99832.66
2023-05-06T16:29:13.177Z,99829.47
2023-05-06T16:31:40.547Z,99836.66
2023-05-06T16:34:07.392Z,99823.50
2023-05-06T16:36:34.343Z,99833.25
2023-05-06T16:39:01.238Z,99853.19
2023-05-06T16:41:28.187Z,99852.00
2023-05-06T16:43:55.049Z,99839.56
2023-05-06T16:46:24.716Z,99864.72
2023-05-06T16:48:53.699Z,99851.22
2023-05-06T16:51:20.751Z,99875.19
2023-05-06T16:53:47.653Z,99856.53
2023-05-06T16:56:14.574Z,99871.28
2023-05-06T16:58:41.403Z,99865.41
2023-05-06T17:01:09.656Z,99879.69
2023-05-06T17:03:36.677Z,99889.03
2023-05-06T17:06:04.303Z,99882.53
2023-05-06T17:08:36.071Z,99893.84
2023-05-06T17:11:06.755Z,99905.78
2023-05-06T17:13:34.447Z,99889.63
2023-05-06T17:16:01.377Z,99890.00
2023-05-06T17:18:28.238Z,99906.78
2023-05-06T17:20:57.040Z,99904.56
2023-05-06T17:23:24.731Z,99924.16
2023-05-06T17:25:51.886Z,99937.53
2023-05-06T17:28:19.142Z,99905.53
2023-05-06T17:30:48.682Z,99937.22
2023-05-06T17:33:15.600Z,99922.75
2023-05-06T17:35:42.536Z,99916.41
2023-05-06T17:38:11.997Z,99940.81
2023-05-06T17:40:39.014Z,99926.41
2023-05-06T17:43:06.188Z,99948.97
2023-05-06T17:45:33.199Z,99960.00
2023-05-06T17:48:00.142Z,99942.69
2023-05-06T17:50:27.282Z,99935.06
2023-05-06T17:52:54.275Z,99981.75
2023-05-06T17:55:21.657Z,99978.44
2023-05-06T17:57:49.316Z,99974.38
2023-05-06T18:00:17.028Z,99961.25
2023-05-06T18:02:44.481Z,99974.59
2023-05-06T18:05:12.066Z,99971.66
2023-05-06T18:07:39.524Z,99961.81
2023-05-06T18:10:07.101Z,99967.16
2023-05-06T18:12:34.106Z,99982.69
2023-05-06T18:15:01.006Z,99981.63
2023-05-06T18:17:27.931Z,100002.88
2023-05-06T18:19:55.292Z,99983.06
2023-05-06T18:22:22.173Z,99989.50
2023-05-06T18:24:49.028Z,99994.38
2023-05-06T18:27:15.959Z,100003.06
2023-05-06T18:29:42.760Z,99987.44
2023-05-06T18:32:09.720Z,100009.22
2023-05-06T18:34:36.661Z,99997.09
2023-05-06T18:37:03.532Z,99959.91
2023-05-06T18:39:30.656Z,99984.41
2023-05-06T18:41:57.585Z,100008.94
2023-05-06T18:44:24.531Z,100014.00
2023-05-06T18:46:51.450Z,100004.84
2023-05-06T18:49:18.403Z,100022.97
2023-05-06T18:51:45.538Z,99990.09
2023-05-06T18:54:13.998Z,100002.84
2023-05-06T18:56:41.916Z,100013.13
2023-05-06T18:59:08.987Z,100006.59
2023-05-06T19:01:35.895Z,100036.19
2023-05-06T19:04:02.839Z,99987.03
2023-05-06T19:06:30.130Z,100027.81
2023-05-06T19:08:57.043Z,100030.09
2023-05-06T19:11:24.163Z,100019.13
2023-05-06T19:13:51.148Z,100011.25
2023-05-06T19:16:18.288Z,100025.06
2023-05-06T19:18:45.199Z,100039.44
2023-05-06T19:21:12.675Z,100051.03
2023-05-06T19:23:39.674Z,100035.88
2023-05-06T19:26:07.118Z,100038.25
2023-05-06T19:28:34.400Z,100042.84
2023-05-06T19:31:01.893Z,100054.13
2023-05-06T19:33:29.059Z,100047.25
2023-05-06T19:35:55.979Z,100032.59
2023-05-06T19:38:22.900Z,100069.00
2023-05-06T19:40:49.755Z,100021.84
2023-05-06T19:43:16.609Z,100038.56
2023-05-06T19:45:45.965Z,100053.16
2023-05-06T19:48:12.753Z,100044.41
2023-05-06T19:50:39.616Z,100044.00
2023-05-06T19:53:08.281Z,100017.88
2023-05-06T19:55:35.285Z,100048.53
2023-05-06T19:58:02.154Z,100020.75
2023-05-06T20:00:29.325Z,100037.53
2023-05-06T20:03:00.278Z,100075.56
2023-05-06T20:05:28.124Z,100060.34
2023-05-06T20:07:55.065Z,100046.34
2023-05-06T20:10:22.135Z,100075.28
2023-05-06T20:12:49.009Z,100058.16
2023-05-06T20:15:16.032Z,100052.28
2023-05-06T20:17:42.907Z,100046.00
2023-05-06T20:20:10.168Z,100085.84
2023-05-06T20:22:38.919Z,100056.81
2023-05-06T20:25:09.397Z,100072.16
2023-05-06T20:27:36.482Z,100078.41
2023-05-06T20:30:03.607Z,100043.59
2023-05-06T20:32:31.487Z,100076.22
2023-05-06T20:34:58.456Z,100089.47
2023-05-06T20:37:25.560Z,100054.09
2023-05-06T20:39:52.499Z,100075.69
2023-05-06T20:42:19.353Z,100072.66
2023-05-06T20:44:46.285Z,100085.28
2023-05-06T20:47:13.154Z,100073.16
2023-05-06T20:49:40.052Z,100091.31
2023-05-06T20:52:07.252Z,100066.81
2023-05-06T20:54:34.866Z,100067.44
2023-05-06T20:57:01.878Z,100066.59
2023-05-06T20:59:29.415Z,100066.06
2023-05-06T21:01:56.470Z,100078.16
2023-05-06T21:04:25.253Z,100077.91
2023-05-06T21:06:52.085Z,100063.34
2023-05-06T21:09:18.977Z,100060.75
2023-05-06T21:11:45.896Z,100081.81
2023-05-06T21:14:12.847Z,100079.38
2023-05-06T21:16:40.651Z,100065.59
2023-05-06T21:19:07.776Z,100089.38
2023-05-06T21:21:34.735Z,100066.28
2023-05-06T21:24:01.970Z,100091.94
2023-05-06T21:26:30.722Z,100095.88
2023-05-06T21:28:57.603Z,100093.25
2023-05-06T21:31:24.737Z,100087.81
2023-05-06T21:33:55.492Z,100081.97
2023-05-06T21:36:22.504Z,100079.91
2023-05-06T21:39:08.749Z,100071.56
2023-05-06T21:41:36.239Z,100103.78
2023-05-06T21:44:04.189Z,100087.13
2023-05-06T21:46:31.970Z,100069.69
2023-05-06T21:48:59.589Z,100084.47
2023-05-06T21:51:31.984Z,100086.69
2023-05-06T21:53:59.132Z,100102.88
2023-05-06T21:56:26.026Z,100085.13
2023-05-06T21:58:53.924Z,100102.94
2023-05-06T22:01:20.929Z,100097.66
2023-05-06T22:03:48.447Z,100084.25
2023-05-06T22:06:15.427Z,100095.69
2023-05-06T22:08:42.686Z,100115.63
2023-05-06T22:11:09.658Z,100110.72
2023-05-06T22:13:36.733Z,100102.31
2023-05-06T22:16:03.709Z,100085.63
2023-05-06T22:18:30.664Z,100109.53
2023-05-06T22:20:57.602Z,100106.16
2023-05-06T22:23:25.166Z,100105.41
2023-05-06T22:25:52.079Z,100120.44
2023-05-06T22:28:19.573Z,100106.50
2023-05-06T22:30:47.301Z,100108.47
2023-05-06T22:33:14.922Z,100111.06
2023-05-06T22:35:41.905Z,100117.81
2023-05-06T22:38:08.986Z,100128.44
2023-05-06T22:40:35.897Z,100139.25
2023-05-06T22:43:02.843Z,100120.19
2023-05-06T22:45:29.780Z,100134.13
2023-05-06T22:47:56.770Z,100109.09
2023-05-06T22:50:23.742Z,100142.81
2023-05-06T22:52:51.188Z,100136.97
2023-05-06T22:55:18.021Z,100127.81
2023-05-06T22:57:45.005Z,100142.63
2023-05-06T23:00:12.265Z,100138.38
2023-05-06T23:02:39.266Z,100135.78
2023-05-06T23:05:06.631Z,100133.25
2023-05-06T23:07:33.591Z,100141.50
2023-05-06T23:10:00.429Z,100143.44
2023-05-06T23:12:31.506Z,100141.75
2023-05-06T23:14:58.496Z,100148.06
2023-05-06T23:17:25.362Z,100171.44
2023-05-06T23:19:52.711Z,100130.53
2023-05-06T23:22:19.621Z,100157.09
2023-05-06T23:24:46.627Z,100170.00
2023-05-06T23:27:13.482Z,100123.47
2023-05-06T23:29:40.390Z,100143.38
2023-05-06T23:32:07.282Z,100156.41
2023-05-06T23:34:34.294Z,100130.31
2023-05-06T23:37:01.308Z,100107.91
2023-05-06T23:39:28.167Z,100150.00
2023-05-06T23:41:54.988Z,100125.97
2023-05-06T23:44:23.012Z,100154.78
2023-05-06T23:46:50.003Z,100159.78
2023-05-06T23:49:17.092Z,100144.41
2023-05-06T23:51:43.956Z,100140.97
2023-05-06T23:54:10.890Z,100135.41
2023-05-06T23:56:37.680Z,100180.13
2023-05-06T23:59:04.627Z,100176.09
